Time;durP1;ratioP1;P1;durP2;ratioP2;P2;SDS_P1;SDS_P2;PMS_P1;PMS_P2;Temp;Humidity;BMP_temperature;BMP_pressure;BME280_temperature;BME280_humidity;BME280_pressure;Samples;Min_cycle;Max_cycle;Signal;HPM_P1;HPM_P2
2021/07/22 10:09:52;;;;;;;18.23;9.75;;;26.30;68.50;;;;;;12005741;27;20418;-62
2021/07/22 10:21:43;;;;;;;15.85;8.85;;;27.00;66.50;;;;;;11950937;28;20052;-64
2021/07/22 10:27:33;;;;;;;14.13;8.57;;;27.40;66.30;;;;;;11993077;28;20044;-64
2021/07/22 10:33:21;;;;;;;15.60;9.20;;;27.70;65.10;;;;;;12013107;28;20053;-63
2021/07/22 10:39:08;;;;;;;17.70;9.43;;;27.90;64.40;;;;;;11969833;28;20582;-64
2021/07/22 10:44:56;;;;;;;16.30;9.07;;;28.10;65.00;;;;;;12038745;28;20036;-64
2021/07/22 10:51:04;;;;;;;16.55;9.60;;;28.10;63.00;;;;;;12038189;28;20444;-62
2021/07/22 10:56:54;;;;;;;12.88;8.65;;;28.20;62.40;;;;;;12026791;28;20059;-62
2021/07/22 11:02:46;;;;;;;14.57;8.88;;;28.30;62.30;;;;;;12054726;28;20055;-61
2021/07/22 11:08:36;;;;;;;11.67;8.07;;;28.20;63.80;;;;;;12034101;28;20063;-63
2021/07/22 11:14:33;;;;;;;12.35;8.73;;;28.60;63.40;;;;;;12056603;28;20428;-61
2021/07/22 11:20:47;;;;;;;21.55;9.07;;;28.60;62.50;;;;;;12028200;28;20041;-63
2021/07/22 11:26:34;;;;;;;;;;;28.80;62.60;;;;;;12023675;28;20049;-62
2021/07/22 11:32:25;;;;;;;11.93;8.18;;;28.80;60.50;;;;;;12024536;28;19925;-63
2021/07/22 11:38:14;;;;;;;12.05;8.27;;;29.00;61.10;;;;;;12022690;28;20045;-62
2021/07/22 11:44:02;;;;;;;10.93;7.95;;;29.10;59.70;;;;;;12023078;28;20041;-62
2021/07/22 11:49:48;;;;;;;11.63;8.27;;;29.20;60.30;;;;;;12022894;28;20118;-63
2021/07/22 11:55:37;;;;;;;13.20;8.32;;;29.40;60.70;;;;;;12023173;28;20124;-63
2021/07/22 12:01:24;;;;;;;11.30;8.27;;;29.50;60.40;;;;;;12023024;28;20090;-63
2021/07/22 12:13:54;;;;;;;11.52;7.43;;;29.40;59.40;;;;;;12007711;28;20041;-63
2021/07/22 12:19:55;;;;;;;14.93;7.78;;;29.60;56.50;;;;;;12017181;28;20094;-64
2021/07/22 12:25:56;;;;;;;11.38;8.32;;;29.70;57.20;;;;;;12015245;28;20061;-63
2021/07/22 12:31:44;;;;;;;12.43;7.80;;;29.80;56.70;;;;;;12016223;28;20044;-63
2021/07/22 12:37:54;;;;;;;11.80;8.50;;;29.90;56.40;;;;;;12020956;28;20049;-62
2021/07/22 12:43:46;;;;;;;12.48;7.40;;;30.10;56.00;;;;;;12016514;28;20053;-62
2021/07/22 12:49:44;;;;;;;14.00;7.97;;;30.20;57.10;;;;;;12015933;28;20440;-63
2021/07/22 13:01:55;;;;;;;10.50;7.50;;;30.20;55.60;;;;;;12008010;28;20048;-63
2021/07/22 13:07:44;;;;;;;11.52;8.32;;;30.30;57.60;;;;;;12005904;28;20048;-62
2021/07/22 13:13:30;;;;;;;15.13;7.50;;;30.50;56.50;;;;;;12012046;28;20041;-63
2021/07/22 13:19:18;;;;;;;13.75;7.32;;;30.70;54.80;;;;;;12013957;28;20067;-63
2021/07/22 13:25:07;;;;;;;15.25;8.38;;;30.80;55.50;;;;;;12013641;28;20587;-63
2021/07/22 13:30:54;;;;;;;10.73;6.95;;;31.00;54.50;;;;;;12014151;28;20428;-63
2021/07/22 13:36:44;;;;;;;8.77;7.20;;;31.10;55.10;;;;;;12011359;28;20429;-63
2021/07/22 13:42:32;;;;;;;11.57;7.72;;;31.20;53.70;;;;;;12013351;28;20052;-64
2021/07/22 13:48:19;;;;;;;10.25;7.75;;;31.30;54.20;;;;;;12013201;28;20050;-64
2021/07/22 13:54:07;;;;;;;11.93;7.35;;;31.40;54.30;;;;;;12011281;28;20041;-64
2021/07/22 13:59:55;;;;;;;10.88;7.35;;;31.30;53.70;;;;;;12012251;28;20064;-64
2021/07/22 14:05:43;;;;;;;14.32;7.93;;;31.50;54.80;;;;;;12001680;28;20053;-64
2021/07/22 14:11:32;;;;;;;10.80;7.47;;;31.50;53.90;;;;;;11969974;28;20076;-65
2021/07/22 14:17:20;;;;;;;13.80;7.45;;;31.70;53.80;;;;;;11981207;28;21185;-65
2021/07/22 14:23:07;;;;;;;14.15;8.05;;;31.80;53.80;;;;;;11980935;28;20056;-65
2021/07/22 14:28:54;;;;;;;14.00;7.65;;;31.70;54.30;;;;;;11981703;28;20106;-64
2021/07/22 14:34:42;;;;;;;8.93;6.70;;;31.70;53.20;;;;;;11980808;28;20102;-67
2021/07/22 14:40:29;;;;;;;10.63;7.50;;;31.90;53.90;;;;;;11990080;28;20053;-63
2021/07/22 14:46:16;;;;;;;11.25;7.25;;;32.00;53.60;;;;;;12013224;28;20037;-63
2021/07/22 14:52:06;;;;;;;11.40;7.32;;;32.10;52.30;;;;;;12008846;28;20070;-63
2021/07/22 14:57:53;;;;;;;10.15;7.43;;;32.20;53.10;;;;;;11991934;28;20049;-64
2021/07/22 15:03:40;;;;;;;9.30;6.90;;;32.30;53.50;;;;;;11990331;28;20057;-63
2021/07/22 15:09:28;;;;;;;13.43;6.80;;;32.40;53.00;;;;;;11989523;28;20060;-63
2021/07/22 15:15:15;;;;;;;12.70;6.90;;;32.40;52.70;;;;;;12013635;28;20056;-63
2021/07/22 15:21:02;;;;;;;9.80;7.40;;;32.50;52.60;;;;;;12019933;28;20064;-63
2021/07/22 15:26:50;;;;;;;9.35;7.35;;;32.60;53.90;;;;;;12025051;28;20110;-63
2021/07/22 15:32:37;;;;;;;11.60;6.75;;;32.80;52.50;;;;;;12020732;28;20044;-62
2021/07/22 15:38:25;;;;;;;11.57;7.40;;;33.00;53.30;;;;;;12020724;28;20064;-63
2021/07/22 15:44:13;;;;;;;9.90;7.30;;;33.20;53.20;;;;;;12020076;28;20041;-62
2021/07/22 15:50:00;;;;;;;12.07;6.82;;;33.40;51.20;;;;;;12018647;28;20053;-62
2021/07/22 15:55:47;;;;;;;9.10;7.00;;;33.80;50.90;;;;;;12018095;28;20053;-62
2021/07/22 16:01:37;;;;;;;11.93;6.82;;;34.90;49.40;;;;;;12019291;28;20045;-62
2021/07/22 16:07:24;;;;;;;9.18;7.05;;;36.30;47.60;;;;;;11998297;28;20049;-63
2021/07/22 16:13:11;;;;;;;10.02;6.38;;;37.70;46.10;;;;;;11983920;28;20056;-63
2021/07/22 16:18:59;;;;;;;12.02;6.90;;;38.60;44.70;;;;;;11981635;28;20060;-64
2021/07/22 16:24:50;;;;;;;10.73;6.80;;;39.50;43.60;;;;;;11978686;28;20052;-64
2021/07/22 16:30:37;;;;;;;12.70;6.93;;;39.90;43.00;;;;;;11989986;28;20044;-64
2021/07/22 16:36:25;;;;;;;9.75;6.30;;;40.20;41.90;;;;;;11986180;28;20116;-64
2021/07/22 16:42:13;;;;;;;8.85;7.05;;;40.20;41.80;;;;;;11988735;28;20049;-63
2021/07/22 16:47:59;;;;;;;9.73;6.28;;;39.50;42.30;;;;;;11990399;28;20059;-64
2021/07/22 16:53:48;;;;;;;9.48;6.57;;;39.70;43.10;;;;;;11988041;28;20045;-64
2021/07/22 16:59:35;;;;;;;7.95;6.50;;;40.90;41.20;;;;;;11985954;28;20119;-63
2021/07/22 17:05:23;;;;;;;8.90;6.88;;;41.70;39.80;;;;;;11987641;28;20056;-64
2021/07/22 17:11:11;;;;;;;10.25;7.57;;;42.10;39.00;;;;;;11989566;28;21013;-64
2021/07/22 17:16:58;;;;;;;8.13;6.45;;;42.50;38.60;;;;;;11982043;28;20068;-64
2021/07/22 17:22:47;;;;;;;8.07;6.47;;;42.80;37.50;;;;;;11982589;28;20041;-64
2021/07/22 17:28:35;;;;;;;9.50;6.15;;;43.00;36.50;;;;;;11984307;28;20049;-64
2021/07/22 17:34:24;;;;;;;8.43;6.50;;;43.00;37.10;;;;;;11999112;28;20114;-63
2021/07/22 17:40:12;;;;;;;8.77;6.38;;;43.10;37.20;;;;;;12015689;28;20036;-63
2021/07/22 17:46:00;;;;;;;8.50;6.20;;;43.30;36.80;;;;;;12011372;28;20048;-63
2021/07/22 17:51:48;;;;;;;6.82;5.88;;;43.20;37.00;;;;;;12012653;28;20086;-63
2021/07/22 17:57:35;;;;;;;8.50;6.38;;;42.40;37.00;;;;;;12013561;28;20044;-63
2021/07/22 18:03:23;;;;;;;9.73;6.35;;;42.10;37.80;;;;;;12013227;28;20373;-63
2021/07/22 18:09:18;;;;;;;9.23;6.82;;;41.40;38.60;;;;;;11982578;28;20053;-63
2021/07/22 18:15:06;;;;;;;10.27;7.20;;;40.40;40.50;;;;;;12013471;28;20153;-62
2021/07/22 18:20:56;;;;;;;8.43;6.47;;;38.40;42.60;;;;;;12012330;28;20041;-62
2021/07/22 18:26:43;;;;;;;9.77;7.22;;;37.10;44.60;;;;;;12015279;28;20064;-62
2021/07/22 18:32:42;;;;;;;14.32;7.55;;;36.30;46.10;;;;;;12022931;28;20056;-63
2021/07/22 18:38:30;;;;;;;14.27;7.95;;;35.40;48.60;;;;;;11990546;28;20053;-64
2021/07/22 18:44:17;;;;;;;9.68;7.88;;;34.50;50.70;;;;;;12011273;28;20044;-63
2021/07/22 18:50:05;;;;;;;16.17;7.60;;;33.70;53.20;;;;;;11988009;28;20056;-63
2021/07/22 18:55:53;;;;;;;9.68;7.43;;;33.80;53.10;;;;;;11997084;28;20374;-63
2021/07/22 19:01:41;;;;;;;11.85;7.40;;;34.00;53.30;;;;;;11985493;28;20084;-63
2021/07/22 19:07:28;;;;;;;11.68;7.20;;;34.00;54.30;;;;;;11973214;28;20056;-62
2021/07/22 19:13:17;;;;;;;12.10;7.30;;;33.10;55.90;;;;;;11951430;28;20052;-63
2021/07/22 19:19:04;;;;;;;9.43;7.45;;;32.40;57.00;;;;;;11999128;28;20040;-62
2021/07/22 19:24:54;;;;;;;11.05;7.30;;;31.80;58.40;;;;;;11993666;28;20041;-62
2021/07/22 19:30:44;;;;;;;10.15;7.65;;;31.30;59.20;;;;;;12006170;28;20628;-64
2021/07/22 19:36:31;;;;;;;11.98;7.22;;;31.00;60.00;;;;;;12023627;28;20095;-64
2021/07/22 19:42:18;;;;;;;10.52;7.57;;;30.60;60.50;;;;;;12021494;28;20072;-64
2021/07/22 19:48:07;;;;;;;10.68;7.57;;;30.20;60.80;;;;;;12022914;28;20041;-63
2021/07/22 19:53:56;;;;;;;9.90;7.55;;;29.90;61.60;;;;;;12023321;28;20041;-64
2021/07/22 19:59:45;;;;;;;13.93;7.80;;;29.70;62.00;;;;;;12023284;28;20420;-64
2021/07/22 20:05:34;;;;;;;11.93;7.50;;;29.50;62.40;;;;;;12013177;28;20056;-63
2021/07/22 20:11:21;;;;;;;13.52;7.70;;;29.30;63.00;;;;;;11990708;28;20052;-63
2021/07/22 20:17:08;;;;;;;12.15;7.60;;;29.20;63.40;;;;;;11993591;28;20083;-63
2021/07/22 20:22:56;;;;;;;12.80;7.57;;;29.10;64.40;;;;;;11992160;28;20052;-63
2021/07/22 20:28:43;;;;;;;12.63;7.22;;;28.90;63.30;;;;;;11992067;28;20041;-63
2021/07/22 20:34:30;;;;;;;10.75;7.40;;;28.70;63.20;;;;;;11990965;28;20080;-63
2021/07/22 20:40:18;;;;;;;12.98;8.20;;;28.60;63.70;;;;;;11990983;28;20045;-62
2021/07/22 20:46:05;;;;;;;12.80;8.30;;;28.50;63.90;;;;;;11993403;28;20125;-62
2021/07/22 20:51:52;;;;;;;10.45;7.75;;;28.40;64.10;;;;;;11999722;28;20041;-62
2021/07/22 20:57:40;;;;;;;16.23;8.75;;;28.30;64.60;;;;;;12020476;28;20052;-62
2021/07/22 21:03:27;;;;;;;10.80;8.32;;;28.30;64.50;;;;;;12018695;28;20404;-63
2021/07/22 21:09:14;;;;;;;13.82;9.25;;;28.20;66.00;;;;;;11991795;28;20472;-63
2021/07/22 21:15:02;;;;;;;14.00;8.50;;;28.10;65.70;;;;;;11988112;28;20064;-63
2021/07/22 21:20:49;;;;;;;17.90;9.20;;;28.00;66.00;;;;;;11999947;28;20044;-63
2021/07/22 21:26:38;;;;;;;14.32;9.35;;;27.80;67.00;;;;;;12019444;28;20052;-63
2021/07/22 21:32:30;;;;;;;14.50;9.48;;;27.80;66.70;;;;;;12013989;28;20052;-62
2021/07/22 21:38:17;;;;;;;16.33;9.70;;;27.70;67.10;;;;;;12014993;28;20045;-63
2021/07/22 21:44:05;;;;;;;16.48;9.90;;;27.70;67.20;;;;;;12015218;28;20052;-63
2021/07/22 21:49:53;;;;;;;16.15;10.32;;;27.60;67.30;;;;;;12014763;28;20056;-63
2021/07/22 21:55:40;;;;;;;17.20;10.18;;;27.50;67.50;;;;;;12014748;28;20425;-63
2021/07/22 22:01:27;;;;;;;13.25;9.90;;;27.50;68.10;;;;;;12014771;28;20048;-63
2021/07/22 22:07:16;;;;;;;16.23;10.35;;;27.40;68.20;;;;;;11993524;28;20045;-63
2021/07/22 22:13:04;;;;;;;16.20;11.32;;;27.30;68.40;;;;;;11985475;28;20049;-63
2021/07/22 22:18:50;;;;;;;14.07;10.88;;;27.30;68.60;;;;;;11986159;28;20480;-63
2021/07/22 22:24:39;;;;;;;15.77;10.20;;;27.20;68.90;;;;;;11984957;28;20532;-64
2021/07/22 22:30:25;;;;;;;17.52;10.82;;;27.10;69.10;;;;;;11985661;28;20552;-63
2021/07/22 22:36:15;;;;;;;18.00;10.27;;;27.00;69.50;;;;;;11982991;28;20041;-64
2021/07/22 22:42:05;;;;;;;16.95;10.45;;;27.00;69.80;;;;;;11983153;28;20119;-63
2021/07/22 22:47:52;;;;;;;16.83;9.73;;;27.00;69.70;;;;;;11984158;28;20426;-64
2021/07/22 22:53:39;;;;;;;17.75;10.48;;;27.00;69.70;;;;;;11985690;28;20072;-64
2021/07/22 22:59:27;;;;;;;17.05;10.75;;;27.00;69.70;;;;;;11978707;28;20053;-64
2021/07/22 23:05:14;;;;;;;16.20;10.27;;;26.90;69.80;;;;;;11984864;28;20060;-64
2021/07/22 23:11:01;;;;;;;17.58;10.77;;;26.90;70.00;;;;;;11983396;28;20051;-64
2021/07/22 23:16:49;;;;;;;19.65;10.20;;;26.90;70.40;;;;;;11988990;28;20057;-64
2021/07/22 23:22:36;;;;;;;20.35;10.93;;;26.90;70.20;;;;;;11991148;28;20048;-64
